Collado-Villalba, Spain
Current Conditions -  °F | °C
As of 10:00 PM on Sunday 19 Oct 2014 (Local Time) from LEVS Reporting Station
Clear Clear  
Wind Chill: 70°   Ceiling: Unl
Heat Index: 70°   Visibility: 6mi
Dew Point: 52°   Wind: 3mph
Humidity: 53%   Direction: 10°N
Pressure: 30.21"   Gusts: NA
Location:  40.64°N, 4°W
Report Text: LEVS 192000Z 01003KT 340V050 CAVOK 21/11 Q1023
Loading
Personal Weather Stations






























Interactive Weather Map
Tropical Storm Tracking
New forecast layout! Learn more

10-Day Weather Forecast

Advertisements
Track Severe Weather on mobile